sensor_id;sensor_type;location;lat;lon;timestamp;P1;durP1;ratioP1;P2;durP2;ratioP2
3299;SDS011;1662;49.310;8.134;2022-10-31T00:01:28;4.17;;;3.77;;
3299;SDS011;1662;49.310;8.134;2022-10-31T00:03:56;4.73;;;4.03;;
3299;SDS011;1662;49.310;8.134;2022-10-31T00:06:22;4.60;;;4.20;;
3299;SDS011;1662;49.310;8.134;2022-10-31T00:08:52;11.07;;;4.37;;
3299;SDS011;1662;49.310;8.134;2022-10-31T00:11:19;4.50;;;4.10;;
3299;SDS011;1662;49.310;8.134;2022-10-31T00:13:45;10.83;;;5.30;;
3299;SDS011;1662;49.310;8.134;2022-10-31T00:16:17;12.40;;;4.37;;
3299;SDS011;1662;49.310;8.134;2022-10-31T00:18:47;6.53;;;4.10;;
3299;SDS011;1662;49.310;8.134;2022-10-31T00:21:16;12.57;;;3.80;;
3299;SDS011;1662;49.310;8.134;2022-10-31T00:23:41;5.77;;;4.43;;
3299;SDS011;1662;49.310;8.134;2022-10-31T00:26:09;5.80;;;4.10;;
3299;SDS011;1662;49.310;8.134;2022-10-31T00:28:35;4.90;;;4.30;;
3299;SDS011;1662;49.310;8.134;2022-10-31T00:31:02;4.93;;;3.83;;
3299;SDS011;1662;49.310;8.134;2022-10-31T00:33:29;4.73;;;4.27;;
3299;SDS011;1662;49.310;8.134;2022-10-31T00:35:55;8.63;;;4.20;;
3299;SDS011;1662;49.310;8.134;2022-10-31T00:38:24;4.13;;;3.27;;
3299;SDS011;1662;49.310;8.134;2022-10-31T00:40:52;5.47;;;4.27;;
3299;SDS011;1662;49.310;8.134;2022-10-31T00:43:19;9.03;;;3.57;;
3299;SDS011;1662;49.310;8.134;2022-10-31T00:45:48;6.33;;;3.87;;
3299;SDS011;1662;49.310;8.134;2022-10-31T00:48:13;5.57;;;3.90;;
3299;SDS011;1662;49.310;8.134;2022-10-31T00:50:39;5.07;;;4.23;;
3299;SDS011;1662;49.310;8.134;2022-10-31T00:53:06;6.03;;;3.43;;
3299;SDS011;1662;49.310;8.134;2022-10-31T00:55:33;6.40;;;3.37;;
3299;SDS011;1662;49.310;8.134;2022-10-31T00:57:58;6.53;;;3.83;;
3299;SDS011;1662;49.310;8.134;2022-10-31T01:00:24;6.23;;;4.40;;
3299;SDS011;1662;49.310;8.134;2022-10-31T01:02:50;5.60;;;3.97;;
3299;SDS011;1662;49.310;8.134;2022-10-31T01:05:16;7.70;;;4.73;;
3299;SDS011;1662;49.310;8.134;2022-10-31T01:07:42;3.50;;;3.20;;
3299;SDS011;1662;49.310;8.134;2022-10-31T01:10:08;6.30;;;3.70;;
3299;SDS011;1662;49.310;8.134;2022-10-31T01:12:35;4.80;;;3.67;;
3299;SDS011;1662;49.310;8.134;2022-10-31T01:15:02;6.10;;;4.07;;
3299;SDS011;1662;49.310;8.134;2022-10-31T01:17:28;5.80;;;4.03;;
3299;SDS011;1662;49.310;8.134;2022-10-31T01:19:56;4.77;;;3.80;;
3299;SDS011;1662;49.310;8.134;2022-10-31T01:22:22;4.50;;;4.10;;
3299;SDS011;1662;49.310;8.134;2022-10-31T01:24:47;9.40;;;4.60;;
3299;SDS011;1662;49.310;8.134;2022-10-31T01:27:13;4.50;;;3.87;;
3299;SDS011;1662;49.310;8.134;2022-10-31T01:29:38;7.17;;;3.80;;
3299;SDS011;1662;49.310;8.134;2022-10-31T01:32:04;4.00;;;3.70;;
3299;SDS011;1662;49.310;8.134;2022-10-31T01:34:30;6.97;;;4.73;;
3299;SDS011;1662;49.310;8.134;2022-10-31T01:36:55;9.90;;;4.00;;
3299;SDS011;1662;49.310;8.134;2022-10-31T01:39:21;4.57;;;3.37;;
3299;SDS011;1662;49.310;8.134;2022-10-31T01:41:47;4.60;;;3.83;;
3299;SDS011;1662;49.310;8.134;2022-10-31T01:49:30;14.53;;;5.80;;
3299;SDS011;1662;49.310;8.134;2022-10-31T01:52:02;5.70;;;5.30;;
3299;SDS011;1662;49.310;8.134;2022-10-31T01:54:30;6.73;;;5.23;;
3299;SDS011;1662;49.310;8.134;2022-10-31T01:57:00;6.70;;;4.93;;
3299;SDS011;1662;49.310;8.134;2022-10-31T01:59:29;6.13;;;5.23;;
3299;SDS011;1662;49.310;8.134;2022-10-31T02:01:59;8.67;;;6.23;;
3299;SDS011;1662;49.310;8.134;2022-10-31T02:04:25;11.20;;;7.07;;
3299;SDS011;1662;49.310;8.134;2022-10-31T02:06:55;6.30;;;5.47;;
3299;SDS011;1662;49.310;8.134;2022-10-31T02:09:34;10.87;;;5.90;;
3299;SDS011;1662;49.310;8.134;2022-10-31T02:12:01;14.30;;;6.87;;
3299;SDS011;1662;49.310;8.134;2022-10-31T02:14:28;6.43;;;5.73;;
3299;SDS011;1662;49.310;8.134;2022-10-31T02:16:55;9.97;;;7.10;;
3299;SDS011;1662;49.310;8.134;2022-10-31T02:22:04;10.40;;;6.13;;
3299;SDS011;1662;49.310;8.134;2022-10-31T02:24:58;10.87;;;6.67;;
3299;SDS011;1662;49.310;8.134;2022-10-31T02:30:14;7.30;;;6.50;;
3299;SDS011;1662;49.310;8.134;2022-10-31T02:41:04;8.20;;;6.87;;
3299;SDS011;1662;49.310;8.134;2022-10-31T02:43:36;12.10;;;7.90;;
3299;SDS011;1662;49.310;8.134;2022-10-31T02:46:14;12.53;;;6.93;;
3299;SDS011;1662;49.310;8.134;2022-10-31T02:48:48;9.93;;;6.37;;
3299;SDS011;1662;49.310;8.134;2022-10-31T02:51:18;8.40;;;6.50;;
3299;SDS011;1662;49.310;8.134;2022-10-31T02:53:44;7.37;;;6.10;;
3299;SDS011;1662;49.310;8.134;2022-10-31T02:58:44;12.67;;;6.93;;
3299;SDS011;1662;49.310;8.134;2022-10-31T03:06:33;5.70;;;5.10;;
3299;SDS011;1662;49.310;8.134;2022-10-31T03:14:21;6.13;;;5.33;;
3299;SDS011;1662;49.310;8.134;2022-10-31T03:16:56;6.50;;;5.90;;
3299;SDS011;1662;49.310;8.134;2022-10-31T03:19:33;5.17;;;4.63;;
3299;SDS011;1662;49.310;8.134;2022-10-31T03:22:04;7.97;;;5.70;;
3299;SDS011;1662;49.310;8.134;2022-10-31T03:24:39;5.33;;;4.93;;
3299;SDS011;1662;49.310;8.134;2022-10-31T03:27:07;5.10;;;4.60;;
3299;SDS011;1662;49.310;8.134;2022-10-31T03:29:37;5.23;;;4.73;;
3299;SDS011;1662;49.310;8.134;2022-10-31T03:32:08;6.50;;;4.93;;
3299;SDS011;1662;49.310;8.134;2022-10-31T03:34:40;7.00;;;5.53;;
3299;SDS011;1662;49.310;8.134;2022-10-31T03:37:09;8.73;;;5.23;;
3299;SDS011;1662;49.310;8.134;2022-10-31T03:39:38;6.33;;;5.53;;
3299;SDS011;1662;49.310;8.134;2022-10-31T03:42:16;13.50;;;5.23;;
3299;SDS011;1662;49.310;8.134;2022-10-31T03:45:28;6.83;;;4.63;;
3299;SDS011;1662;49.310;8.134;2022-10-31T03:47:37;7.60;;;5.57;;
3299;SDS011;1662;49.310;8.134;2022-10-31T03:50:05;8.07;;;6.20;;
3299;SDS011;1662;49.310;8.134;2022-10-31T03:53:15;5.70;;;5.20;;
3299;SDS011;1662;49.310;8.134;2022-10-31T03:55:42;5.97;;;5.40;;
3299;SDS011;1662;49.310;8.134;2022-10-31T03:58:24;10.63;;;6.17;;
3299;SDS011;1662;49.310;8.134;2022-10-31T04:00:54;9.80;;;5.73;;
3299;SDS011;1662;49.310;8.134;2022-10-31T04:03:22;9.43;;;6.60;;
3299;SDS011;1662;49.310;8.134;2022-10-31T04:05:55;9.43;;;6.07;;
3299;SDS011;1662;49.310;8.134;2022-10-31T04:08:24;6.70;;;5.80;;
3299;SDS011;1662;49.310;8.134;2022-10-31T04:10:54;15.07;;;8.23;;
3299;SDS011;1662;49.310;8.134;2022-10-31T04:13:27;11.67;;;6.50;;
3299;SDS011;1662;49.310;8.134;2022-10-31T04:15:55;13.93;;;6.53;;
3299;SDS011;1662;49.310;8.134;2022-10-31T04:18:24;9.67;;;6.23;;
3299;SDS011;1662;49.310;8.134;2022-10-31T04:20:59;10.97;;;7.70;;
3299;SDS011;1662;49.310;8.134;2022-10-31T04:23:26;11.00;;;6.47;;
3299;SDS011;1662;49.310;8.134;2022-10-31T04:25:52;9.27;;;6.43;;
3299;SDS011;1662;49.310;8.134;2022-10-31T04:28:18;7.63;;;5.97;;
3299;SDS011;1662;49.310;8.134;2022-10-31T04:30:44;7.17;;;6.40;;
3299;SDS011;1662;49.310;8.134;2022-10-31T04:33:09;7.77;;;6.33;;
3299;SDS011;1662;49.310;8.134;2022-10-31T04:35:35;8.37;;;6.60;;
3299;SDS011;1662;49.310;8.134;2022-10-31T04:38:01;12.50;;;7.40;;
3299;SDS011;1662;49.310;8.134;2022-10-31T04:40:27;11.70;;;8.33;;
3299;SDS011;1662;49.310;8.134;2022-10-31T04:42:52;10.00;;;7.50;;
3299;SDS011;1662;49.310;8.134;2022-10-31T04:45:18;9.23;;;7.00;;
3299;SDS011;1662;49.310;8.134;2022-10-31T04:47:43;8.73;;;7.20;;
3299;SDS011;1662;49.310;8.134;2022-10-31T04:50:09;10.87;;;8.80;;
3299;SDS011;1662;49.310;8.134;2022-10-31T04:52:38;8.43;;;6.70;;
3299;SDS011;1662;49.310;8.134;2022-10-31T04:55:05;9.37;;;6.80;;
3299;SDS011;1662;49.310;8.134;2022-10-31T04:57:39;10.63;;;7.17;;
3299;SDS011;1662;49.310;8.134;2022-10-31T05:00:06;7.90;;;7.10;;
3299;SDS011;1662;49.310;8.134;2022-10-31T05:02:33;14.27;;;7.50;;
3299;SDS011;1662;49.310;8.134;2022-10-31T05:04:58;9.80;;;7.10;;
3299;SDS011;1662;49.310;8.134;2022-10-31T05:07:24;6.80;;;6.23;;
3299;SDS011;1662;49.310;8.134;2022-10-31T05:09:49;7.07;;;6.33;;
3299;SDS011;1662;49.310;8.134;2022-10-31T05:12:15;6.70;;;5.70;;
3299;SDS011;1662;49.310;8.134;2022-10-31T05:14:40;8.53;;;5.80;;
3299;SDS011;1662;49.310;8.134;2022-10-31T05:17:10;5.90;;;5.40;;
3299;SDS011;1662;49.310;8.134;2022-10-31T05:19:38;9.73;;;6.27;;
3299;SDS011;1662;49.310;8.134;2022-10-31T05:22:06;11.67;;;5.97;;
3299;SDS011;1662;49.310;8.134;2022-10-31T05:24:31;9.20;;;6.13;;
3299;SDS011;1662;49.310;8.134;2022-10-31T05:26:57;6.90;;;6.17;;
3299;SDS011;1662;49.310;8.134;2022-10-31T05:29:23;7.87;;;6.43;;
3299;SDS011;1662;49.310;8.134;2022-10-31T05:31:49;10.83;;;6.10;;
3299;SDS011;1662;49.310;8.134;2022-10-31T05:34:14;9.63;;;5.70;;
3299;SDS011;1662;49.310;8.134;2022-10-31T05:36:40;7.40;;;5.67;;
3299;SDS011;1662;49.310;8.134;2022-10-31T05:39:05;8.00;;;5.40;;
3299;SDS011;1662;49.310;8.134;2022-10-31T05:41:31;8.23;;;5.10;;
3299;SDS011;1662;49.310;8.134;2022-10-31T05:44:01;9.50;;;6.87;;
3299;SDS011;1662;49.310;8.134;2022-10-31T05:46:27;12.37;;;6.27;;
3299;SDS011;1662;49.310;8.134;2022-10-31T05:48:52;10.13;;;5.77;;
3299;SDS011;1662;49.310;8.134;2022-10-31T05:51:18;7.30;;;5.67;;
3299;SDS011;1662;49.310;8.134;2022-10-31T05:53:43;8.50;;;5.63;;
3299;SDS011;1662;49.310;8.134;2022-10-31T05:56:12;5.87;;;5.20;;
3299;SDS011;1662;49.310;8.134;2022-10-31T05:58:37;14.43;;;5.40;;
3299;SDS011;1662;49.310;8.134;2022-10-31T06:01:03;10.50;;;5.83;;
3299;SDS011;1662;49.310;8.134;2022-10-31T06:03:31;6.90;;;5.50;;
3299;SDS011;1662;49.310;8.134;2022-10-31T06:05:56;5.87;;;5.27;;
3299;SDS011;1662;49.310;8.134;2022-10-31T06:08:22;6.57;;;5.83;;
3299;SDS011;1662;49.310;8.134;2022-10-31T06:10:47;6.53;;;5.70;;
3299;SDS011;1662;49.310;8.134;2022-10-31T06:13:13;5.60;;;5.10;;
3299;SDS011;1662;49.310;8.134;2022-10-31T06:15:39;7.63;;;5.67;;
3299;SDS011;1662;49.310;8.134;2022-10-31T06:18:05;8.60;;;5.13;;
3299;SDS011;1662;49.310;8.134;2022-10-31T06:20:31;9.00;;;5.50;;
3299;SDS011;1662;49.310;8.134;2022-10-31T06:22:57;11.93;;;5.40;;
3299;SDS011;1662;49.310;8.134;2022-10-31T06:25:23;5.50;;;5.00;;
3299;SDS011;1662;49.310;8.134;2022-10-31T06:27:49;8.60;;;6.23;;
3299;SDS011;1662;49.310;8.134;2022-10-31T06:30:15;10.43;;;7.47;;
3299;SDS011;1662;49.310;8.134;2022-10-31T06:32:40;8.83;;;7.93;;
3299;SDS011;1662;49.310;8.134;2022-10-31T06:35:06;7.80;;;7.00;;
3299;SDS011;1662;49.310;8.134;2022-10-31T06:37:32;8.80;;;7.67;;
3299;SDS011;1662;49.310;8.134;2022-10-31T06:39:57;9.23;;;7.00;;
3299;SDS011;1662;49.310;8.134;2022-10-31T06:42:23;9.03;;;7.57;;
3299;SDS011;1662;49.310;8.134;2022-10-31T06:44:48;7.63;;;6.53;;
3299;SDS011;1662;49.310;8.134;2022-10-31T06:47:14;12.30;;;7.33;;
3299;SDS011;1662;49.310;8.134;2022-10-31T06:49:39;7.63;;;6.53;;
3299;SDS011;1662;49.310;8.134;2022-10-31T06:52:08;9.07;;;6.63;;
3299;SDS011;1662;49.310;8.134;2022-10-31T06:54:36;8.37;;;6.93;;
3299;SDS011;1662;49.310;8.134;2022-10-31T06:57:03;9.27;;;7.03;;
3299;SDS011;1662;49.310;8.134;2022-10-31T06:59:29;11.97;;;7.20;;
3299;SDS011;1662;49.310;8.134;2022-10-31T07:01:57;13.87;;;6.60;;
3299;SDS011;1662;49.310;8.134;2022-10-31T07:04:23;9.67;;;5.47;;
3299;SDS011;1662;49.310;8.134;2022-10-31T07:06:51;10.03;;;6.60;;
3299;SDS011;1662;49.310;8.134;2022-10-31T07:09:17;12.83;;;6.90;;
3299;SDS011;1662;49.310;8.134;2022-10-31T07:11:43;11.20;;;7.20;;
3299;SDS011;1662;49.310;8.134;2022-10-31T07:14:09;11.53;;;7.57;;
3299;SDS011;1662;49.310;8.134;2022-10-31T07:16:34;10.53;;;6.60;;
3299;SDS011;1662;49.310;8.134;2022-10-31T07:19:00;9.63;;;6.10;;
3299;SDS011;1662;49.310;8.134;2022-10-31T07:21:25;17.83;;;8.50;;
3299;SDS011;1662;49.310;8.134;2022-10-31T07:23:51;12.90;;;7.67;;
3299;SDS011;1662;49.310;8.134;2022-10-31T07:26:16;8.50;;;6.60;;
3299;SDS011;1662;49.310;8.134;2022-10-31T07:28:42;10.57;;;7.50;;
3299;SDS011;1662;49.310;8.134;2022-10-31T07:31:10;8.30;;;7.00;;
3299;SDS011;1662;49.310;8.134;2022-10-31T07:33:36;10.07;;;7.17;;
3299;SDS011;1662;49.310;8.134;2022-10-31T07:36:01;9.53;;;8.60;;
3299;SDS011;1662;49.310;8.134;2022-10-31T07:38:27;8.43;;;7.63;;
3299;SDS011;1662;49.310;8.134;2022-10-31T07:40:52;9.97;;;8.17;;
3299;SDS011;1662;49.310;8.134;2022-10-31T07:43:18;8.50;;;6.50;;
3299;SDS011;1662;49.310;8.134;2022-10-31T07:45:44;11.80;;;8.80;;
3299;SDS011;1662;49.310;8.134;2022-10-31T07:48:14;12.60;;;8.87;;
3299;SDS011;1662;49.310;8.134;2022-10-31T07:50:40;16.43;;;10.23;;
3299;SDS011;1662;49.310;8.134;2022-10-31T07:53:06;15.93;;;9.80;;
3299;SDS011;1662;49.310;8.134;2022-10-31T07:55:35;12.90;;;9.97;;
3299;SDS011;1662;49.310;8.134;2022-10-31T07:58:05;14.70;;;10.03;;
3299;SDS011;1662;49.310;8.134;2022-10-31T08:00:33;6.37;;;5.77;;
3299;SDS011;1662;49.310;8.134;2022-10-31T08:03:04;13.67;;;8.23;;
3299;SDS011;1662;49.310;8.134;2022-10-31T08:05:32;16.70;;;10.37;;
3299;SDS011;1662;49.310;8.134;2022-10-31T08:07:58;15.77;;;10.10;;
3299;SDS011;1662;49.310;8.134;2022-10-31T08:10:24;15.30;;;9.73;;
3299;SDS011;1662;49.310;8.134;2022-10-31T08:12:58;13.93;;;11.07;;
3299;SDS011;1662;49.310;8.134;2022-10-31T08:15:27;16.07;;;9.97;;
3299;SDS011;1662;49.310;8.134;2022-10-31T08:17:53;11.40;;;9.63;;
3299;SDS011;1662;49.310;8.134;2022-10-31T08:20:19;11.47;;;10.27;;
3299;SDS011;1662;49.310;8.134;2022-10-31T08:23:02;13.80;;;9.60;;
3299;SDS011;1662;49.310;8.134;2022-10-31T08:25:29;13.80;;;9.63;;
3299;SDS011;1662;49.310;8.134;2022-10-31T08:27:56;13.60;;;10.23;;
3299;SDS011;1662;49.310;8.134;2022-10-31T08:30:23;10.50;;;9.33;;
3299;SDS011;1662;49.310;8.134;2022-10-31T08:32:58;11.30;;;10.03;;
3299;SDS011;1662;49.310;8.134;2022-10-31T08:35:34;13.00;;;9.60;;
3299;SDS011;1662;49.310;8.134;2022-10-31T08:38:00;10.63;;;9.53;;
3299;SDS011;1662;49.310;8.134;2022-10-31T08:40:27;10.50;;;9.60;;
3299;SDS011;1662;49.310;8.134;2022-10-31T08:43:17;32.70;;;10.67;;
3299;SDS011;1662;49.310;8.134;2022-10-31T08:45:41;12.73;;;8.70;;
3299;SDS011;1662;49.310;8.134;2022-10-31T08:48:14;10.77;;;8.60;;
3299;SDS011;1662;49.310;8.134;2022-10-31T08:50:44;17.00;;;9.93;;
3299;SDS011;1662;49.310;8.134;2022-10-31T08:55:43;10.60;;;9.17;;
3299;SDS011;1662;49.310;8.134;2022-10-31T08:58:11;10.17;;;9.10;;
3299;SDS011;1662;49.310;8.134;2022-10-31T09:00:38;19.00;;;9.43;;
3299;SDS011;1662;49.310;8.134;2022-10-31T09:03:05;14.17;;;8.77;;
3299;SDS011;1662;49.310;8.134;2022-10-31T09:05:34;17.73;;;9.10;;
3299;SDS011;1662;49.310;8.134;2022-10-31T09:08:00;11.87;;;9.53;;
3299;SDS011;1662;49.310;8.134;2022-10-31T09:10:27;13.93;;;9.50;;
3299;SDS011;1662;49.310;8.134;2022-10-31T09:15:26;9.43;;;7.60;;
3299;SDS011;1662;49.310;8.134;2022-10-31T09:17:55;9.10;;;8.20;;
3299;SDS011;1662;49.310;8.134;2022-10-31T09:20:21;9.43;;;8.53;;
3299;SDS011;1662;49.310;8.134;2022-10-31T09:22:56;12.77;;;9.60;;
3299;SDS011;1662;49.310;8.134;2022-10-31T09:25:26;15.23;;;9.20;;
3299;SDS011;1662;49.310;8.134;2022-10-31T09:27:59;18.30;;;10.80;;
3299;SDS011;1662;49.310;8.134;2022-10-31T09:30:26;10.40;;;8.63;;
3299;SDS011;1662;49.310;8.134;2022-10-31T09:32:56;13.00;;;10.40;;
3299;SDS011;1662;49.310;8.134;2022-10-31T09:35:22;14.97;;;10.17;;
3299;SDS011;1662;49.310;8.134;2022-10-31T09:37:53;12.07;;;9.73;;
3299;SDS011;1662;49.310;8.134;2022-10-31T09:40:25;11.60;;;9.50;;
3299;SDS011;1662;49.310;8.134;2022-10-31T09:42:59;17.23;;;10.20;;
3299;SDS011;1662;49.310;8.134;2022-10-31T09:45:48;11.77;;;9.10;;
3299;SDS011;1662;49.310;8.134;2022-10-31T09:51:25;18.93;;;10.40;;
3299;SDS011;1662;49.310;8.134;2022-10-31T09:54:06;10.30;;;8.80;;
3299;SDS011;1662;49.310;8.134;2022-10-31T09:56:37;10.50;;;9.60;;
3299;SDS011;1662;49.310;8.134;2022-10-31T09:59:04;12.67;;;9.53;;
3299;SDS011;1662;49.310;8.134;2022-10-31T10:07:13;22.50;;;11.30;;
3299;SDS011;1662;49.310;8.134;2022-10-31T10:09:45;15.63;;;10.00;;
3299;SDS011;1662;49.310;8.134;2022-10-31T10:25:38;13.47;;;9.27;;
3299;SDS011;1662;49.310;8.134;2022-10-31T10:28:15;12.17;;;9.20;;
3299;SDS011;1662;49.310;8.134;2022-10-31T10:33:30;16.87;;;11.60;;
3299;SDS011;1662;49.310;8.134;2022-10-31T10:36:04;14.40;;;10.27;;
3299;SDS011;1662;49.310;8.134;2022-10-31T10:41:29;12.67;;;10.10;;
3299;SDS011;1662;49.310;8.134;2022-10-31T10:43:58;16.00;;;9.50;;
3299;SDS011;1662;49.310;8.134;2022-10-31T11:02:50;13.50;;;10.50;;
3299;SDS011;1662;49.310;8.134;2022-10-31T11:05:23;14.73;;;9.77;;
3299;SDS011;1662;49.310;8.134;2022-10-31T11:08:11;18.87;;;11.33;;
3299;SDS011;1662;49.310;8.134;2022-10-31T11:14:13;11.37;;;10.23;;
3299;SDS011;1662;49.310;8.134;2022-10-31T11:16:45;12.60;;;10.67;;
3299;SDS011;1662;49.310;8.134;2022-10-31T11:19:21;15.30;;;9.47;;
3299;SDS011;1662;49.310;8.134;2022-10-31T11:21:51;10.30;;;9.30;;
3299;SDS011;1662;49.310;8.134;2022-10-31T11:24:21;16.30;;;10.73;;
3299;SDS011;1662;49.310;8.134;2022-10-31T11:26:49;18.40;;;10.57;;
3299;SDS011;1662;49.310;8.134;2022-10-31T11:29:23;11.53;;;10.43;;
3299;SDS011;1662;49.310;8.134;2022-10-31T11:31:57;14.13;;;10.30;;
3299;SDS011;1662;49.310;8.134;2022-10-31T11:34:31;16.20;;;8.70;;
3299;SDS011;1662;49.310;8.134;2022-10-31T11:37:04;10.23;;;9.23;;
3299;SDS011;1662;49.310;8.134;2022-10-31T11:39:41;13.90;;;9.33;;
3299;SDS011;1662;49.310;8.134;2022-10-31T11:42:18;13.37;;;10.30;;
3299;SDS011;1662;49.310;8.134;2022-10-31T11:44:46;16.50;;;10.83;;
3299;SDS011;1662;49.310;8.134;2022-10-31T11:47:13;15.20;;;10.20;;
3299;SDS011;1662;49.310;8.134;2022-10-31T11:49:44;11.73;;;8.63;;
3299;SDS011;1662;49.310;8.134;2022-10-31T11:54:49;13.70;;;9.70;;
3299;SDS011;1662;49.310;8.134;2022-10-31T11:59:55;15.27;;;11.20;;
3299;SDS011;1662;49.310;8.134;2022-10-31T12:02:22;14.03;;;10.87;;
3299;SDS011;1662;49.310;8.134;2022-10-31T12:04:59;16.10;;;10.67;;
3299;SDS011;1662;49.310;8.134;2022-10-31T12:07:33;9.73;;;8.83;;
3299;SDS011;1662;49.310;8.134;2022-10-31T12:10:02;13.20;;;10.13;;
3299;SDS011;1662;49.310;8.134;2022-10-31T12:26:53;18.20;;;10.83;;
3299;SDS011;1662;49.310;8.134;2022-10-31T12:32:36;13.93;;;10.20;;
3299;SDS011;1662;49.310;8.134;2022-10-31T12:46:34;12.77;;;10.00;;
3299;SDS011;1662;49.310;8.134;2022-10-31T12:49:29;13.33;;;10.27;;
3299;SDS011;1662;49.310;8.134;2022-10-31T12:52:20;13.73;;;8.40;;
3299;SDS011;1662;49.310;8.134;2022-10-31T12:57:36;13.40;;;9.87;;
3299;SDS011;1662;49.310;8.134;2022-10-31T13:00:16;15.53;;;9.63;;
3299;SDS011;1662;49.310;8.134;2022-10-31T13:02:54;15.03;;;9.43;;
3299;SDS011;1662;49.310;8.134;2022-10-31T13:10:43;12.60;;;9.90;;
3299;SDS011;1662;49.310;8.134;2022-10-31T13:13:27;13.87;;;9.17;;
3299;SDS011;1662;49.310;8.134;2022-10-31T13:16:09;13.90;;;8.50;;
3299;SDS011;1662;49.310;8.134;2022-10-31T13:21:36;13.80;;;11.20;;
3299;SDS011;1662;49.310;8.134;2022-10-31T13:24:19;15.83;;;11.00;;
3299;SDS011;1662;49.310;8.134;2022-10-31T13:26:55;19.23;;;11.37;;
3299;SDS011;1662;49.310;8.134;2022-10-31T13:31:54;13.17;;;9.60;;
3299;SDS011;1662;49.310;8.134;2022-10-31T13:34:23;12.40;;;10.20;;
3299;SDS011;1662;49.310;8.134;2022-10-31T13:39:31;10.17;;;9.17;;
3299;SDS011;1662;49.310;8.134;2022-10-31T13:45:46;10.43;;;9.33;;
3299;SDS011;1662;49.310;8.134;2022-10-31T13:47:55;12.40;;;9.10;;
3299;SDS011;1662;49.310;8.134;2022-10-31T13:50:30;10.60;;;8.20;;
3299;SDS011;1662;49.310;8.134;2022-10-31T13:53:10;9.77;;;8.80;;
3299;SDS011;1662;49.310;8.134;2022-10-31T13:55:46;13.33;;;10.33;;
3299;SDS011;1662;49.310;8.134;2022-10-31T13:58:31;10.00;;;9.10;;
3299;SDS011;1662;49.310;8.134;2022-10-31T14:01:03;13.17;;;10.37;;
3299;SDS011;1662;49.310;8.134;2022-10-31T14:03:40;15.20;;;10.47;;
3299;SDS011;1662;49.310;8.134;2022-10-31T14:06:09;16.10;;;11.20;;
3299;SDS011;1662;49.310;8.134;2022-10-31T14:08:37;9.53;;;8.73;;
3299;SDS011;1662;49.310;8.134;2022-10-31T14:11:16;15.60;;;9.43;;
3299;SDS011;1662;49.310;8.134;2022-10-31T14:13:53;11.00;;;9.17;;
3299;SDS011;1662;49.310;8.134;2022-10-31T14:16:25;17.10;;;10.13;;
3299;SDS011;1662;49.310;8.134;2022-10-31T14:19:00;21.50;;;9.80;;
3299;SDS011;1662;49.310;8.134;2022-10-31T14:21:27;28.30;;;18.23;;
3299;SDS011;1662;49.310;8.134;2022-10-31T14:23:55;20.57;;;13.83;;
3299;SDS011;1662;49.310;8.134;2022-10-31T14:28:54;14.93;;;10.23;;
3299;SDS011;1662;49.310;8.134;2022-10-31T14:31:27;15.43;;;11.40;;
3299;SDS011;1662;49.310;8.134;2022-10-31T14:42:00;18.33;;;9.90;;
3299;SDS011;1662;49.310;8.134;2022-10-31T14:49:44;17.53;;;11.00;;
3299;SDS011;1662;49.310;8.134;2022-10-31T14:52:22;13.97;;;10.13;;
3299;SDS011;1662;49.310;8.134;2022-10-31T14:54:50;12.13;;;9.77;;
3299;SDS011;1662;49.310;8.134;2022-10-31T14:57:22;14.37;;;10.60;;
3299;SDS011;1662;49.310;8.134;2022-10-31T15:00:01;16.70;;;10.20;;
3299;SDS011;1662;49.310;8.134;2022-10-31T15:05:10;10.43;;;9.33;;
3299;SDS011;1662;49.310;8.134;2022-10-31T15:07:47;14.40;;;8.80;;
3299;SDS011;1662;49.310;8.134;2022-10-31T15:13:14;15.93;;;8.93;;
3299;SDS011;1662;49.310;8.134;2022-10-31T15:15:43;14.13;;;8.77;;
3299;SDS011;1662;49.310;8.134;2022-10-31T15:18:23;9.37;;;8.30;;
3299;SDS011;1662;49.310;8.134;2022-10-31T15:20:53;16.97;;;9.20;;
3299;SDS011;1662;49.310;8.134;2022-10-31T15:23:21;17.60;;;8.73;;
3299;SDS011;1662;49.310;8.134;2022-10-31T15:25:59;10.10;;;7.70;;
3299;SDS011;1662;49.310;8.134;2022-10-31T15:28:27;14.20;;;8.20;;
3299;SDS011;1662;49.310;8.134;2022-10-31T15:30:54;10.90;;;9.20;;
3299;SDS011;1662;49.310;8.134;2022-10-31T15:33:28;13.20;;;8.90;;
3299;SDS011;1662;49.310;8.134;2022-10-31T15:35:58;10.03;;;8.97;;
3299;SDS011;1662;49.310;8.134;2022-10-31T15:38:26;13.83;;;11.20;;
3299;SDS011;1662;49.310;8.134;2022-10-31T15:41:00;15.10;;;10.63;;
3299;SDS011;1662;49.310;8.134;2022-10-31T15:43:44;16.07;;;10.20;;
3299;SDS011;1662;49.310;8.134;2022-10-31T15:46:10;13.43;;;9.47;;
3299;SDS011;1662;49.310;8.134;2022-10-31T15:48:35;10.53;;;9.53;;
3299;SDS011;1662;49.310;8.134;2022-10-31T15:51:03;9.70;;;8.87;;
3299;SDS011;1662;49.310;8.134;2022-10-31T15:56:02;11.50;;;10.40;;
3299;SDS011;1662;49.310;8.134;2022-10-31T15:58:33;15.00;;;10.63;;
3299;SDS011;1662;49.310;8.134;2022-10-31T16:01:19;11.00;;;9.50;;
3299;SDS011;1662;49.310;8.134;2022-10-31T16:07:01;16.07;;;9.37;;
3299;SDS011;1662;49.310;8.134;2022-10-31T16:09:37;16.17;;;10.33;;
3299;SDS011;1662;49.310;8.134;2022-10-31T16:12:13;13.13;;;9.80;;
3299;SDS011;1662;49.310;8.134;2022-10-31T16:14:40;14.10;;;10.00;;
3299;SDS011;1662;49.310;8.134;2022-10-31T16:17:12;15.07;;;10.93;;
3299;SDS011;1662;49.310;8.134;2022-10-31T16:19:59;19.23;;;13.43;;
3299;SDS011;1662;49.310;8.134;2022-10-31T16:22:30;15.57;;;12.67;;
3299;SDS011;1662;49.310;8.134;2022-10-31T16:25:03;13.03;;;11.63;;
3299;SDS011;1662;49.310;8.134;2022-10-31T16:27:35;17.23;;;11.90;;
3299;SDS011;1662;49.310;8.134;2022-10-31T16:30:03;12.80;;;10.13;;
3299;SDS011;1662;49.310;8.134;2022-10-31T16:37:50;12.80;;;9.37;;
3299;SDS011;1662;49.310;8.134;2022-10-31T16:40:19;11.10;;;10.00;;
3299;SDS011;1662;49.310;8.134;2022-10-31T16:42:47;11.53;;;9.87;;
3299;SDS011;1662;49.310;8.134;2022-10-31T16:45:21;10.17;;;9.17;;
3299;SDS011;1662;49.310;8.134;2022-10-31T16:47:51;9.27;;;8.40;;
3299;SDS011;1662;49.310;8.134;2022-10-31T16:50:22;12.67;;;9.77;;
3299;SDS011;1662;49.310;8.134;2022-10-31T16:52:49;13.83;;;9.27;;
3299;SDS011;1662;49.310;8.134;2022-10-31T16:55:15;10.20;;;8.30;;
3299;SDS011;1662;49.310;8.134;2022-10-31T16:57:47;14.70;;;9.63;;
3299;SDS011;1662;49.310;8.134;2022-10-31T17:00:25;17.83;;;8.03;;
3299;SDS011;1662;49.310;8.134;2022-10-31T17:02:52;20.60;;;8.87;;
3299;SDS011;1662;49.310;8.134;2022-10-31T17:05:20;18.10;;;9.20;;
3299;SDS011;1662;49.310;8.134;2022-10-31T17:07:46;13.00;;;10.93;;
3299;SDS011;1662;49.310;8.134;2022-10-31T17:10:12;19.13;;;10.17;;
3299;SDS011;1662;49.310;8.134;2022-10-31T17:12:40;11.63;;;9.93;;
3299;SDS011;1662;49.310;8.134;2022-10-31T17:15:15;13.93;;;11.73;;
3299;SDS011;1662;49.310;8.134;2022-10-31T17:17:41;15.37;;;10.77;;
3299;SDS011;1662;49.310;8.134;2022-10-31T17:20:20;12.07;;;9.27;;
3299;SDS011;1662;49.310;8.134;2022-10-31T17:22:48;9.70;;;7.90;;
3299;SDS011;1662;49.310;8.134;2022-10-31T17:25:18;10.13;;;8.40;;
3299;SDS011;1662;49.310;8.134;2022-10-31T17:27:46;12.10;;;9.67;;
3299;SDS011;1662;49.310;8.134;2022-10-31T17:30:12;16.13;;;10.07;;
3299;SDS011;1662;49.310;8.134;2022-10-31T17:32:39;12.27;;;8.40;;
3299;SDS011;1662;49.310;8.134;2022-10-31T17:35:06;11.70;;;9.03;;
3299;SDS011;1662;49.310;8.134;2022-10-31T17:37:32;15.00;;;9.90;;
3299;SDS011;1662;49.310;8.134;2022-10-31T17:39:58;11.43;;;10.10;;
3299;SDS011;1662;49.310;8.134;2022-10-31T17:42:26;12.87;;;10.17;;
3299;SDS011;1662;49.310;8.134;2022-10-31T17:44:52;11.00;;;9.93;;
3299;SDS011;1662;49.310;8.134;2022-10-31T17:47:18;16.03;;;11.27;;
3299;SDS011;1662;49.310;8.134;2022-10-31T17:49:46;14.43;;;11.17;;
3299;SDS011;1662;49.310;8.134;2022-10-31T17:52:12;15.50;;;12.53;;
3299;SDS011;1662;49.310;8.134;2022-10-31T17:54:37;16.80;;;11.70;;
3299;SDS011;1662;49.310;8.134;2022-10-31T17:57:03;15.23;;;10.53;;
3299;SDS011;1662;49.310;8.134;2022-10-31T17:59:28;11.33;;;10.20;;
3299;SDS011;1662;49.310;8.134;2022-10-31T18:01:57;13.83;;;10.80;;
3299;SDS011;1662;49.310;8.134;2022-10-31T18:04:24;22.73;;;11.20;;
3299;SDS011;1662;49.310;8.134;2022-10-31T18:06:50;16.67;;;12.70;;
3299;SDS011;1662;49.310;8.134;2022-10-31T18:09:18;15.67;;;10.37;;